sensor_id;sensor_type;location;lat;lon;timestamp;P1;durP1;ratioP1;P2;durP2;ratioP2
78298;SDS011;67556;55.656;12.590;2024-01-15T00:00:43;7.13;;;2.40;;
78298;SDS011;67556;55.656;12.590;2024-01-15T00:03:09;4.32;;;1.60;;
78298;SDS011;67556;55.656;12.590;2024-01-15T00:05:39;7.93;;;2.28;;
78298;SDS011;67556;55.656;12.590;2024-01-15T00:08:05;4.45;;;1.92;;
78298;SDS011;67556;55.656;12.590;2024-01-15T00:10:34;3.28;;;1.98;;
78298;SDS011;67556;55.656;12.590;2024-01-15T00:13:03;5.93;;;1.75;;
78298;SDS011;67556;55.656;12.590;2024-01-15T00:15:29;5.03;;;2.70;;
78298;SDS011;67556;55.656;12.590;2024-01-15T00:17:56;6.43;;;2.40;;
78298;SDS011;67556;55.656;12.590;2024-01-15T00:20:23;5.85;;;2.20;;
78298;SDS011;67556;55.656;12.590;2024-01-15T00:22:49;7.07;;;2.42;;
78298;SDS011;67556;55.656;12.590;2024-01-15T00:25:15;4.38;;;2.10;;
78298;SDS011;67556;55.656;12.590;2024-01-15T00:27:45;8.88;;;2.05;;
78298;SDS011;67556;55.656;12.590;2024-01-15T00:30:11;4.63;;;2.10;;
78298;SDS011;67556;55.656;12.590;2024-01-15T00:32:38;5.45;;;2.58;;
78298;SDS011;67556;55.656;12.590;2024-01-15T00:35:05;6.47;;;2.35;;
78298;SDS011;67556;55.656;12.590;2024-01-15T00:37:31;10.35;;;2.55;;
78298;SDS011;67556;55.656;12.590;2024-01-15T00:39:58;9.43;;;2.72;;
78298;SDS011;67556;55.656;12.590;2024-01-15T00:42:25;7.40;;;2.92;;
78298;SDS011;67556;55.656;12.590;2024-01-15T00:44:52;7.40;;;2.53;;
78298;SDS011;67556;55.656;12.590;2024-01-15T00:47:19;3.85;;;1.98;;
78298;SDS011;67556;55.656;12.590;2024-01-15T00:49:45;8.07;;;2.17;;
78298;SDS011;67556;55.656;12.590;2024-01-15T00:52:12;3.97;;;1.83;;
78298;SDS011;67556;55.656;12.590;2024-01-15T00:54:41;10.45;;;2.63;;
78298;SDS011;67556;55.656;12.590;2024-01-15T00:57:07;9.90;;;3.03;;
78298;SDS011;67556;55.656;12.590;2024-01-15T00:59:34;10.95;;;2.22;;
78298;SDS011;67556;55.656;12.590;2024-01-15T01:02:02;6.88;;;2.47;;
78298;SDS011;67556;55.656;12.590;2024-01-15T01:04:28;5.50;;;2.63;;
78298;SDS011;67556;55.656;12.590;2024-01-15T01:06:55;8.38;;;2.47;;
78298;SDS011;67556;55.656;12.590;2024-01-15T01:09:21;8.13;;;2.25;;
78298;SDS011;67556;55.656;12.590;2024-01-15T01:11:47;6.93;;;2.42;;
78298;SDS011;67556;55.656;12.590;2024-01-15T01:14:14;3.50;;;1.98;;
78298;SDS011;67556;55.656;12.590;2024-01-15T01:16:40;6.35;;;2.20;;
78298;SDS011;67556;55.656;12.590;2024-01-15T01:19:08;6.05;;;2.30;;
78298;SDS011;67556;55.656;12.590;2024-01-15T01:21:34;6.40;;;2.97;;
78298;SDS011;67556;55.656;12.590;2024-01-15T01:24:04;5.97;;;1.90;;
78298;SDS011;67556;55.656;12.590;2024-01-15T01:26:30;3.38;;;1.63;;
78298;SDS011;67556;55.656;12.590;2024-01-15T01:28:59;7.57;;;2.35;;
78298;SDS011;67556;55.656;12.590;2024-01-15T01:31:26;5.18;;;1.92;;
78298;SDS011;67556;55.656;12.590;2024-01-15T01:33:53;7.30;;;2.63;;
78298;SDS011;67556;55.656;12.590;2024-01-15T01:36:21;6.10;;;2.03;;
78298;SDS011;67556;55.656;12.590;2024-01-15T01:38:47;4.53;;;1.52;;
78298;SDS011;67556;55.656;12.590;2024-01-15T01:41:14;3.00;;;1.77;;
78298;SDS011;67556;55.656;12.590;2024-01-15T01:43:40;5.30;;;2.22;;
78298;SDS011;67556;55.656;12.590;2024-01-15T01:46:07;5.05;;;1.95;;
78298;SDS011;67556;55.656;12.590;2024-01-15T01:48:33;5.20;;;1.98;;
78298;SDS011;67556;55.656;12.590;2024-01-15T01:51:01;3.42;;;1.95;;
78298;SDS011;67556;55.656;12.590;2024-01-15T01:53:31;6.65;;;2.08;;
78298;SDS011;67556;55.656;12.590;2024-01-15T01:55:58;6.93;;;2.20;;
78298;SDS011;67556;55.656;12.590;2024-01-15T01:58:24;8.82;;;2.30;;
78298;SDS011;67556;55.656;12.590;2024-01-15T02:00:52;3.33;;;1.83;;
78298;SDS011;67556;55.656;12.590;2024-01-15T02:03:20;5.15;;;1.95;;
78298;SDS011;67556;55.656;12.590;2024-01-15T02:05:47;8.73;;;2.00;;
78298;SDS011;67556;55.656;12.590;2024-01-15T02:08:15;5.22;;;2.47;;
78298;SDS011;67556;55.656;12.590;2024-01-15T02:10:43;5.13;;;2.08;;
78298;SDS011;67556;55.656;12.590;2024-01-15T02:13:09;4.45;;;2.10;;
78298;SDS011;67556;55.656;12.590;2024-01-15T02:15:39;3.75;;;1.85;;
78298;SDS011;67556;55.656;12.590;2024-01-15T02:18:07;6.13;;;2.05;;
78298;SDS011;67556;55.656;12.590;2024-01-15T02:20:33;4.28;;;1.95;;
78298;SDS011;67556;55.656;12.590;2024-01-15T02:23:05;4.63;;;2.03;;
78298;SDS011;67556;55.656;12.590;2024-01-15T02:25:31;4.20;;;1.77;;
78298;SDS011;67556;55.656;12.590;2024-01-15T02:27:58;5.97;;;2.38;;
78298;SDS011;67556;55.656;12.590;2024-01-15T02:30:25;4.18;;;1.80;;
78298;SDS011;67556;55.656;12.590;2024-01-15T02:32:51;3.78;;;1.70;;
78298;SDS011;67556;55.656;12.590;2024-01-15T02:35:18;6.22;;;1.88;;
78298;SDS011;67556;55.656;12.590;2024-01-15T02:37:48;3.72;;;2.20;;
78298;SDS011;67556;55.656;12.590;2024-01-15T02:40:15;3.45;;;1.90;;
78298;SDS011;67556;55.656;12.590;2024-01-15T02:42:42;2.40;;;1.70;;
78298;SDS011;67556;55.656;12.590;2024-01-15T02:45:08;4.30;;;1.83;;
78298;SDS011;67556;55.656;12.590;2024-01-15T02:47:35;3.95;;;1.90;;
78298;SDS011;67556;55.656;12.590;2024-01-15T02:50:01;3.58;;;1.77;;
78298;SDS011;67556;55.656;12.590;2024-01-15T02:52:28;4.55;;;1.83;;
78298;SDS011;67556;55.656;12.590;2024-01-15T02:54:54;2.30;;;1.73;;
78298;SDS011;67556;55.656;12.590;2024-01-15T02:57:22;4.82;;;2.20;;
78298;SDS011;67556;55.656;12.590;2024-01-15T02:59:48;3.17;;;2.00;;
78298;SDS011;67556;55.656;12.590;2024-01-15T03:02:15;2.65;;;1.90;;
78298;SDS011;67556;55.656;12.590;2024-01-15T03:04:42;4.50;;;2.30;;
78298;SDS011;67556;55.656;12.590;2024-01-15T03:07:09;2.25;;;1.75;;
78298;SDS011;67556;55.656;12.590;2024-01-15T03:09:35;4.50;;;1.95;;
78298;SDS011;67556;55.656;12.590;2024-01-15T03:12:01;2.20;;;1.83;;
78298;SDS011;67556;55.656;12.590;2024-01-15T03:14:29;3.15;;;1.67;;
78298;SDS011;67556;55.656;12.590;2024-01-15T03:16:55;1.92;;;1.40;;
78298;SDS011;67556;55.656;12.590;2024-01-15T03:19:22;2.17;;;1.60;;
78298;SDS011;67556;55.656;12.590;2024-01-15T03:21:48;1.45;;;1.33;;
78298;SDS011;67556;55.656;12.590;2024-01-15T03:24:15;0.93;;;0.93;;
78298;SDS011;67556;55.656;12.590;2024-01-15T03:26:42;1.40;;;1.30;;
78298;SDS011;67556;55.656;12.590;2024-01-15T03:29:09;1.15;;;1.05;;
78298;SDS011;67556;55.656;12.590;2024-01-15T03:31:40;1.15;;;1.05;;
78298;SDS011;67556;55.656;12.590;2024-01-15T03:34:06;2.13;;;1.40;;
78298;SDS011;67556;55.656;12.590;2024-01-15T03:36:32;1.40;;;1.30;;
78298;SDS011;67556;55.656;12.590;2024-01-15T03:38:59;1.30;;;1.20;;
78298;SDS011;67556;55.656;12.590;2024-01-15T03:41:25;1.52;;;1.42;;
78298;SDS011;67556;55.656;12.590;2024-01-15T03:43:52;1.45;;;1.35;;
78298;SDS011;67556;55.656;12.590;2024-01-15T03:46:20;2.03;;;1.55;;
78298;SDS011;67556;55.656;12.590;2024-01-15T03:48:48;5.93;;;1.50;;
78298;SDS011;67556;55.656;12.590;2024-01-15T03:51:15;1.55;;;1.20;;
78298;SDS011;67556;55.656;12.590;2024-01-15T03:53:41;3.42;;;2.20;;
78298;SDS011;67556;55.656;12.590;2024-01-15T03:56:08;1.38;;;1.27;;
78298;SDS011;67556;55.656;12.590;2024-01-15T03:58:34;1.60;;;1.50;;
78298;SDS011;67556;55.656;12.590;2024-01-15T04:03:36;2.72;;;1.20;;
78298;SDS011;67556;55.656;12.590;2024-01-15T04:06:04;4.18;;;1.85;;
78298;SDS011;67556;55.656;12.590;2024-01-15T04:08:30;1.55;;;1.40;;
78298;SDS011;67556;55.656;12.590;2024-01-15T04:10:57;3.03;;;1.58;;
78298;SDS011;67556;55.656;12.590;2024-01-15T04:13:23;2.70;;;2.00;;
78298;SDS011;67556;55.656;12.590;2024-01-15T04:15:50;3.88;;;1.83;;
78298;SDS011;67556;55.656;12.590;2024-01-15T04:18:16;3.17;;;1.33;;
78298;SDS011;67556;55.656;12.590;2024-01-15T04:20:42;2.47;;;1.70;;
78298;SDS011;67556;55.656;12.590;2024-01-15T04:23:10;3.38;;;1.48;;
78298;SDS011;67556;55.656;12.590;2024-01-15T04:25:36;1.95;;;1.40;;
78298;SDS011;67556;55.656;12.590;2024-01-15T04:28:03;2.85;;;1.65;;
78298;SDS011;67556;55.656;12.590;2024-01-15T04:30:29;3.05;;;1.60;;
78298;SDS011;67556;55.656;12.590;2024-01-15T04:32:57;1.58;;;1.38;;
78298;SDS011;67556;55.656;12.590;2024-01-15T04:35:24;4.15;;;1.50;;
78298;SDS011;67556;55.656;12.590;2024-01-15T04:37:50;1.75;;;1.42;;
78298;SDS011;67556;55.656;12.590;2024-01-15T04:40:18;2.70;;;1.90;;
78298;SDS011;67556;55.656;12.590;2024-01-15T04:42:44;3.60;;;1.50;;
78298;SDS011;67556;55.656;12.590;2024-01-15T04:45:11;2.92;;;1.70;;
78298;SDS011;67556;55.656;12.590;2024-01-15T04:47:37;2.75;;;2.15;;
78298;SDS011;67556;55.656;12.590;2024-01-15T04:50:04;4.43;;;1.55;;
78298;SDS011;67556;55.656;12.590;2024-01-15T04:52:30;4.13;;;1.55;;
78298;SDS011;67556;55.656;12.590;2024-01-15T04:54:56;3.65;;;1.83;;
78298;SDS011;67556;55.656;12.590;2024-01-15T04:57:24;3.63;;;1.63;;
78298;SDS011;67556;55.656;12.590;2024-01-15T04:59:50;5.07;;;2.30;;
78298;SDS011;67556;55.656;12.590;2024-01-15T05:02:19;3.75;;;1.83;;
78298;SDS011;67556;55.656;12.590;2024-01-15T05:04:45;2.63;;;2.00;;
78298;SDS011;67556;55.656;12.590;2024-01-15T05:07:11;2.42;;;1.65;;
78298;SDS011;67556;55.656;12.590;2024-01-15T05:09:37;2.25;;;1.63;;
78298;SDS011;67556;55.656;12.590;2024-01-15T05:12:05;3.60;;;2.00;;
78298;SDS011;67556;55.656;12.590;2024-01-15T05:14:33;5.05;;;1.85;;
78298;SDS011;67556;55.656;12.590;2024-01-15T05:16:59;4.25;;;2.08;;
78298;SDS011;67556;55.656;12.590;2024-01-15T05:19:26;4.05;;;2.65;;
78298;SDS011;67556;55.656;12.590;2024-01-15T05:21:52;4.70;;;2.13;;
78298;SDS011;67556;55.656;12.590;2024-01-15T05:24:19;7.82;;;2.00;;
78298;SDS011;67556;55.656;12.590;2024-01-15T05:26:45;2.97;;;1.55;;
78298;SDS011;67556;55.656;12.590;2024-01-15T05:29:12;4.65;;;1.90;;
78298;SDS011;67556;55.656;12.590;2024-01-15T05:31:39;2.70;;;1.70;;
78298;SDS011;67556;55.656;12.590;2024-01-15T05:34:12;6.32;;;2.25;;
78298;SDS011;67556;55.656;12.590;2024-01-15T05:36:38;2.60;;;1.70;;
78298;SDS011;67556;55.656;12.590;2024-01-15T05:39:14;4.57;;;2.10;;
78298;SDS011;67556;55.656;12.590;2024-01-15T05:41:40;2.75;;;1.52;;
78298;SDS011;67556;55.656;12.590;2024-01-15T05:44:06;2.20;;;1.70;;
78298;SDS011;67556;55.656;12.590;2024-01-15T05:46:33;6.80;;;3.63;;
78298;SDS011;67556;55.656;12.590;2024-01-15T05:49:06;4.40;;;2.20;;
78298;SDS011;67556;55.656;12.590;2024-01-15T05:51:39;2.88;;;1.90;;
78298;SDS011;67556;55.656;12.590;2024-01-15T05:54:05;8.25;;;2.60;;
78298;SDS011;67556;55.656;12.590;2024-01-15T05:56:31;3.03;;;2.10;;
78298;SDS011;67556;55.656;12.590;2024-01-15T05:58:58;3.35;;;1.58;;
78298;SDS011;67556;55.656;12.590;2024-01-15T06:01:24;3.35;;;1.75;;
78298;SDS011;67556;55.656;12.590;2024-01-15T06:03:50;4.80;;;2.45;;
78298;SDS011;67556;55.656;12.590;2024-01-15T06:06:25;4.93;;;2.25;;
78298;SDS011;67556;55.656;12.590;2024-01-15T06:09:10;2.78;;;1.90;;
78298;SDS011;67556;55.656;12.590;2024-01-15T06:11:53;3.50;;;2.20;;
78298;SDS011;67556;55.656;12.590;2024-01-15T06:14:36;3.83;;;2.00;;
78298;SDS011;67556;55.656;12.590;2024-01-15T06:17:10;2.60;;;1.83;;
78298;SDS011;67556;55.656;12.590;2024-01-15T06:19:54;2.63;;;1.73;;
78298;SDS011;67556;55.656;12.590;2024-01-15T06:22:22;2.63;;;1.67;;
78298;SDS011;67556;55.656;12.590;2024-01-15T06:24:55;3.38;;;1.92;;
78298;SDS011;67556;55.656;12.590;2024-01-15T06:27:21;3.92;;;2.05;;
78298;SDS011;67556;55.656;12.590;2024-01-15T06:29:54;4.15;;;2.13;;
78298;SDS011;67556;55.656;12.590;2024-01-15T06:32:27;3.75;;;1.95;;
78298;SDS011;67556;55.656;12.590;2024-01-15T06:35:07;2.60;;;1.92;;
78298;SDS011;67556;55.656;12.590;2024-01-15T06:37:37;4.13;;;2.03;;
78298;SDS011;67556;55.656;12.590;2024-01-15T06:40:04;4.40;;;1.95;;
78298;SDS011;67556;55.656;12.590;2024-01-15T06:42:35;4.20;;;2.30;;
78298;SDS011;67556;55.656;12.590;2024-01-15T06:45:04;4.38;;;1.95;;
78298;SDS011;67556;55.656;12.590;2024-01-15T06:47:49;4.20;;;2.30;;
78298;SDS011;67556;55.656;12.590;2024-01-15T06:50:21;3.65;;;2.15;;
78298;SDS011;67556;55.656;12.590;2024-01-15T06:52:58;5.18;;;2.13;;
78298;SDS011;67556;55.656;12.590;2024-01-15T06:55:26;4.75;;;2.35;;
78298;SDS011;67556;55.656;12.590;2024-01-15T06:57:53;3.10;;;1.92;;
78298;SDS011;67556;55.656;12.590;2024-01-15T07:00:19;2.95;;;2.33;;
78298;SDS011;67556;55.656;12.590;2024-01-15T07:03:02;4.35;;;2.00;;
78298;SDS011;67556;55.656;12.590;2024-01-15T07:05:42;5.18;;;2.88;;
78298;SDS011;67556;55.656;12.590;2024-01-15T07:08:28;5.43;;;2.33;;
78298;SDS011;67556;55.656;12.590;2024-01-15T07:10:55;4.80;;;1.40;;
78298;SDS011;67556;55.656;12.590;2024-01-15T07:13:21;5.93;;;2.13;;
78298;SDS011;67556;55.656;12.590;2024-01-15T07:15:48;1.60;;;1.50;;
78298;SDS011;67556;55.656;12.590;2024-01-15T07:18:14;3.97;;;2.15;;
78298;SDS011;67556;55.656;12.590;2024-01-15T07:20:43;2.10;;;1.73;;
78298;SDS011;67556;55.656;12.590;2024-01-15T07:23:19;2.67;;;1.80;;
78298;SDS011;67556;55.656;12.590;2024-01-15T07:25:47;2.97;;;1.50;;
78298;SDS011;67556;55.656;12.590;2024-01-15T07:28:32;2.63;;;1.88;;
78298;SDS011;67556;55.656;12.590;2024-01-15T07:31:05;3.72;;;1.83;;
78298;SDS011;67556;55.656;12.590;2024-01-15T07:33:44;1.60;;;1.50;;
78298;SDS011;67556;55.656;12.590;2024-01-15T07:36:24;1.60;;;1.48;;
78298;SDS011;67556;55.656;12.590;2024-01-15T07:39:00;2.25;;;1.75;;
78298;SDS011;67556;55.656;12.590;2024-01-15T07:41:28;1.55;;;1.42;;
78298;SDS011;67556;55.656;12.590;2024-01-15T07:43:55;2.53;;;1.77;;
78298;SDS011;67556;55.656;12.590;2024-01-15T07:46:32;3.28;;;1.60;;
78298;SDS011;67556;55.656;12.590;2024-01-15T07:48:58;5.95;;;1.98;;
78298;SDS011;67556;55.656;12.590;2024-01-15T07:51:25;3.15;;;1.42;;
78298;SDS011;67556;55.656;12.590;2024-01-15T07:53:52;1.67;;;1.45;;
78298;SDS011;67556;55.656;12.590;2024-01-15T07:56:20;1.83;;;1.30;;
78298;SDS011;67556;55.656;12.590;2024-01-15T07:58:54;2.40;;;1.80;;
78298;SDS011;67556;55.656;12.590;2024-01-15T08:01:20;1.50;;;1.30;;
78298;SDS011;67556;55.656;12.590;2024-01-15T08:03:47;3.58;;;1.58;;
78298;SDS011;67556;55.656;12.590;2024-01-15T08:06:14;1.90;;;1.65;;
78298;SDS011;67556;55.656;12.590;2024-01-15T08:08:43;4.22;;;1.83;;
78298;SDS011;67556;55.656;12.590;2024-01-15T08:11:10;3.65;;;1.98;;
78298;SDS011;67556;55.656;12.590;2024-01-15T08:13:36;5.97;;;2.05;;
78298;SDS011;67556;55.656;12.590;2024-01-15T08:16:04;3.38;;;1.50;;
78298;SDS011;67556;55.656;12.590;2024-01-15T08:18:32;1.98;;;1.70;;
78298;SDS011;67556;55.656;12.590;2024-01-15T08:20:59;2.75;;;1.80;;
78298;SDS011;67556;55.656;12.590;2024-01-15T08:23:26;5.18;;;1.92;;
78298;SDS011;67556;55.656;12.590;2024-01-15T08:25:57;2.28;;;1.85;;
78298;SDS011;67556;55.656;12.590;2024-01-15T08:28:30;2.28;;;1.52;;
78298;SDS011;67556;55.656;12.590;2024-01-15T08:31:04;3.00;;;1.60;;
78298;SDS011;67556;55.656;12.590;2024-01-15T08:33:48;3.65;;;2.50;;
78298;SDS011;67556;55.656;12.590;2024-01-15T08:36:15;3.58;;;1.63;;
78298;SDS011;67556;55.656;12.590;2024-01-15T08:38:44;3.25;;;2.10;;
78298;SDS011;67556;55.656;12.590;2024-01-15T08:41:10;3.33;;;1.90;;
78298;SDS011;67556;55.656;12.590;2024-01-15T08:43:37;4.78;;;2.00;;
78298;SDS011;67556;55.656;12.590;2024-01-15T08:46:19;2.63;;;1.80;;
78298;SDS011;67556;55.656;12.590;2024-01-15T08:48:45;2.78;;;1.80;;
78298;SDS011;67556;55.656;12.590;2024-01-15T08:51:33;2.10;;;1.90;;
78298;SDS011;67556;55.656;12.590;2024-01-15T08:54:17;4.53;;;2.00;;
78298;SDS011;67556;55.656;12.590;2024-01-15T08:56:45;5.40;;;3.55;;
78298;SDS011;67556;55.656;12.590;2024-01-15T08:59:14;7.32;;;3.00;;
78298;SDS011;67556;55.656;12.590;2024-01-15T09:01:45;3.28;;;2.22;;
78298;SDS011;67556;55.656;12.590;2024-01-15T09:04:14;3.38;;;1.88;;
78298;SDS011;67556;55.656;12.590;2024-01-15T09:06:47;2.97;;;1.55;;
78298;SDS011;67556;55.656;12.590;2024-01-15T09:09:13;2.75;;;1.90;;
78298;SDS011;67556;55.656;12.590;2024-01-15T09:11:39;1.83;;;1.55;;
78298;SDS011;67556;55.656;12.590;2024-01-15T09:14:07;2.85;;;1.58;;
78298;SDS011;67556;55.656;12.590;2024-01-15T09:16:34;2.30;;;2.10;;
78298;SDS011;67556;55.656;12.590;2024-01-15T09:19:02;4.00;;;1.98;;
78298;SDS011;67556;55.656;12.590;2024-01-15T09:21:28;2.67;;;1.48;;
78298;SDS011;67556;55.656;12.590;2024-01-15T09:23:55;1.90;;;1.80;;
78298;SDS011;67556;55.656;12.590;2024-01-15T09:26:22;2.38;;;1.30;;
78298;SDS011;67556;55.656;12.590;2024-01-15T09:28:49;1.30;;;1.20;;
78298;SDS011;67556;55.656;12.590;2024-01-15T09:31:15;2.10;;;1.65;;
78298;SDS011;67556;55.656;12.590;2024-01-15T09:33:42;2.45;;;1.70;;
78298;SDS011;67556;55.656;12.590;2024-01-15T09:36:10;3.10;;;1.80;;
78298;SDS011;67556;55.656;12.590;2024-01-15T09:38:37;2.67;;;1.45;;
78298;SDS011;67556;55.656;12.590;2024-01-15T09:41:06;1.83;;;1.50;;
78298;SDS011;67556;55.656;12.590;2024-01-15T09:43:32;2.00;;;1.42;;
78298;SDS011;67556;55.656;12.590;2024-01-15T09:45:59;1.40;;;1.30;;
78298;SDS011;67556;55.656;12.590;2024-01-15T09:48:26;1.45;;;1.33;;
78298;SDS011;67556;55.656;12.590;2024-01-15T09:50:52;1.08;;;1.00;;
78298;SDS011;67556;55.656;12.590;2024-01-15T09:53:20;1.33;;;1.23;;
78298;SDS011;67556;55.656;12.590;2024-01-15T09:55:49;1.83;;;1.20;;
78298;SDS011;67556;55.656;12.590;2024-01-15T09:58:16;1.35;;;1.25;;
78298;SDS011;67556;55.656;12.590;2024-01-15T10:00:43;0.98;;;0.98;;
78298;SDS011;67556;55.656;12.590;2024-01-15T10:03:11;1.25;;;1.15;;
78298;SDS011;67556;55.656;12.590;2024-01-15T10:05:37;2.05;;;1.60;;
78298;SDS011;67556;55.656;12.590;2024-01-15T10:08:04;1.27;;;1.17;;
78298;SDS011;67556;55.656;12.590;2024-01-15T10:10:32;2.47;;;1.35;;
78298;SDS011;67556;55.656;12.590;2024-01-15T10:12:58;1.55;;;1.42;;
78298;SDS011;67556;55.656;12.590;2024-01-15T10:15:25;1.67;;;1.50;;
78298;SDS011;67556;55.656;12.590;2024-01-15T10:18:05;1.60;;;1.50;;
78298;SDS011;67556;55.656;12.590;2024-01-15T10:20:37;2.67;;;1.50;;
78298;SDS011;67556;55.656;12.590;2024-01-15T10:23:03;1.60;;;1.50;;
78298;SDS011;67556;55.656;12.590;2024-01-15T10:25:31;1.40;;;1.30;;
78298;SDS011;67556;55.656;12.590;2024-01-15T10:27:59;1.92;;;1.33;;
78298;SDS011;67556;55.656;12.590;2024-01-15T10:30:27;1.55;;;1.45;;
78298;SDS011;67556;55.656;12.590;2024-01-15T10:32:57;1.38;;;1.27;;
78298;SDS011;67556;55.656;12.590;2024-01-15T10:35:26;1.30;;;1.17;;
78298;SDS011;67556;55.656;12.590;2024-01-15T10:37:52;1.90;;;1.30;;
78298;SDS011;67556;55.656;12.590;2024-01-15T10:40:20;1.50;;;1.40;;
78298;SDS011;67556;55.656;12.590;2024-01-15T10:42:49;1.52;;;1.42;;
78298;SDS011;67556;55.656;12.590;2024-01-15T10:45:16;1.60;;;1.38;;
78298;SDS011;67556;55.656;12.590;2024-01-15T10:47:43;1.35;;;1.25;;
78298;SDS011;67556;55.656;12.590;2024-01-15T10:50:12;1.58;;;1.48;;
78298;SDS011;67556;55.656;12.590;2024-01-15T10:52:42;1.73;;;1.33;;
78298;SDS011;67556;55.656;12.590;2024-01-15T10:55:09;1.70;;;1.60;;
78298;SDS011;67556;55.656;12.590;2024-01-15T10:57:36;2.08;;;1.80;;
78298;SDS011;67556;55.656;12.590;2024-01-15T11:00:05;1.80;;;1.70;;
78298;SDS011;67556;55.656;12.590;2024-01-15T11:02:32;1.15;;;1.10;;
78298;SDS011;67556;55.656;12.590;2024-01-15T11:04:59;1.50;;;1.40;;
78298;SDS011;67556;55.656;12.590;2024-01-15T11:07:26;1.67;;;1.27;;
78298;SDS011;67556;55.656;12.590;2024-01-15T11:09:54;1.50;;;1.40;;
78298;SDS011;67556;55.656;12.590;2024-01-15T11:12:21;1.13;;;1.05;;
78298;SDS011;67556;55.656;12.590;2024-01-15T11:14:49;1.38;;;1.27;;
78298;SDS011;67556;55.656;12.590;2024-01-15T11:17:17;1.23;;;1.13;;
78298;SDS011;67556;55.656;12.590;2024-01-15T11:19:45;1.58;;;1.48;;
78298;SDS011;67556;55.656;12.590;2024-01-15T11:24:53;1.50;;;1.40;;
78298;SDS011;67556;55.656;12.590;2024-01-15T11:27:21;1.55;;;1.45;;
78298;SDS011;67556;55.656;12.590;2024-01-15T11:30:06;2.47;;;1.80;;
78298;SDS011;67556;55.656;12.590;2024-01-15T11:32:35;3.28;;;1.75;;
78298;SDS011;67556;55.656;12.590;2024-01-15T11:35:02;1.48;;;1.38;;
78298;SDS011;67556;55.656;12.590;2024-01-15T11:37:29;4.30;;;2.00;;
78298;SDS011;67556;55.656;12.590;2024-01-15T11:39:56;1.65;;;1.23;;
78298;SDS011;67556;55.656;12.590;2024-01-15T11:42:26;1.45;;;1.35;;
78298;SDS011;67556;55.656;12.590;2024-01-15T11:45:01;1.90;;;1.70;;
78298;SDS011;67556;55.656;12.590;2024-01-15T11:47:36;1.85;;;1.73;;
78298;SDS011;67556;55.656;12.590;2024-01-15T11:50:09;2.47;;;1.50;;
78298;SDS011;67556;55.656;12.590;2024-01-15T11:52:37;2.35;;;1.38;;
78298;SDS011;67556;55.656;12.590;2024-01-15T11:55:07;1.48;;;1.38;;
78298;SDS011;67556;55.656;12.590;2024-01-15T11:57:55;1.35;;;1.25;;
78298;SDS011;67556;55.656;12.590;2024-01-15T12:00:23;2.33;;;1.48;;
78298;SDS011;67556;55.656;12.590;2024-01-15T12:03:08;2.90;;;2.35;;
78298;SDS011;67556;55.656;12.590;2024-01-15T12:05:55;1.42;;;1.33;;
78298;SDS011;67556;55.656;12.590;2024-01-15T12:08:23;2.42;;;1.65;;
78298;SDS011;67556;55.656;12.590;2024-01-15T12:11:05;1.90;;;1.70;;
78298;SDS011;67556;55.656;12.590;2024-01-15T12:13:33;1.58;;;1.48;;
78298;SDS011;67556;55.656;12.590;2024-01-15T12:16:06;1.48;;;1.38;;
78298;SDS011;67556;55.656;12.590;2024-01-15T12:18:41;2.75;;;1.52;;
78298;SDS011;67556;55.656;12.590;2024-01-15T12:21:09;1.45;;;1.35;;
78298;SDS011;67556;55.656;12.590;2024-01-15T12:23:41;1.48;;;1.25;;
78298;SDS011;67556;55.656;12.590;2024-01-15T12:26:10;1.30;;;1.20;;
78298;SDS011;67556;55.656;12.590;2024-01-15T12:28:44;1.95;;;1.30;;
78298;SDS011;67556;55.656;12.590;2024-01-15T12:31:18;4.00;;;1.60;;
78298;SDS011;67556;55.656;12.590;2024-01-15T12:33:45;2.42;;;1.38;;
78298;SDS011;67556;55.656;12.590;2024-01-15T12:36:22;2.03;;;1.83;;
78298;SDS011;67556;55.656;12.590;2024-01-15T12:38:48;1.40;;;1.30;;
78298;SDS011;67556;55.656;12.590;2024-01-15T12:41:14;1.38;;;1.27;;
78298;SDS011;67556;55.656;12.590;2024-01-15T12:43:47;1.50;;;1.40;;
78298;SDS011;67556;55.656;12.590;2024-01-15T12:46:39;1.77;;;1.58;;
78298;SDS011;67556;55.656;12.590;2024-01-15T12:49:07;1.60;;;1.50;;
78298;SDS011;67556;55.656;12.590;2024-01-15T12:51:44;1.70;;;1.60;;
78298;SDS011;67556;55.656;12.590;2024-01-15T12:54:19;1.92;;;1.83;;
78298;SDS011;67556;55.656;12.590;2024-01-15T12:56:59;1.83;;;1.58;;
78298;SDS011;67556;55.656;12.590;2024-01-15T12:59:28;2.25;;;1.63;;
78298;SDS011;67556;55.656;12.590;2024-01-15T13:02:07;3.10;;;1.63;;
78298;SDS011;67556;55.656;12.590;2024-01-15T13:04:35;1.35;;;1.25;;
78298;SDS011;67556;55.656;12.590;2024-01-15T13:07:04;2.72;;;1.55;;
78298;SDS011;67556;55.656;12.590;2024-01-15T13:09:36;1.75;;;1.33;;
78298;SDS011;67556;55.656;12.590;2024-01-15T13:12:03;1.45;;;1.35;;
78298;SDS011;67556;55.656;12.590;2024-01-15T13:14:31;1.85;;;1.63;;
78298;SDS011;67556;55.656;12.590;2024-01-15T13:17:00;1.85;;;1.60;;
78298;SDS011;67556;55.656;12.590;2024-01-15T13:19:29;2.50;;;1.70;;
78298;SDS011;67556;55.656;12.590;2024-01-15T13:21:56;1.52;;;1.42;;
78298;SDS011;67556;55.656;12.590;2024-01-15T13:24:27;4.57;;;1.90;;
78298;SDS011;67556;55.656;12.590;2024-01-15T13:26:56;4.18;;;2.38;;
78298;SDS011;67556;55.656;12.590;2024-01-15T13:29:31;4.50;;;2.53;;
78298;SDS011;67556;55.656;12.590;2024-01-15T13:31:58;1.58;;;1.48;;
78298;SDS011;67556;55.656;12.590;2024-01-15T13:34:24;2.00;;;1.67;;
78298;SDS011;67556;55.656;12.590;2024-01-15T13:36:58;2.13;;;1.55;;
78298;SDS011;67556;55.656;12.590;2024-01-15T13:39:25;1.55;;;1.38;;
78298;SDS011;67556;55.656;12.590;2024-01-15T13:41:52;1.63;;;1.52;;
78298;SDS011;67556;55.656;12.590;2024-01-15T13:44:27;2.20;;;1.60;;
78298;SDS011;67556;55.656;12.590;2024-01-15T13:46:59;2.03;;;1.33;;
78298;SDS011;67556;55.656;12.590;2024-01-15T13:49:44;1.65;;;1.55;;
78298;SDS011;67556;55.656;12.590;2024-01-15T13:52:13;1.52;;;1.42;;
78298;SDS011;67556;55.656;12.590;2024-01-15T13:54:39;2.05;;;1.85;;
78298;SDS011;67556;55.656;12.590;2024-01-15T13:57:20;2.47;;;1.63;;
78298;SDS011;67556;55.656;12.590;2024-01-15T13:59:50;3.38;;;1.60;;
78298;SDS011;67556;55.656;12.590;2024-01-15T14:02:17;2.92;;;1.88;;
78298;SDS011;67556;55.656;12.590;2024-01-15T14:04:46;2.35;;;2.10;;
78298;SDS011;67556;55.656;12.590;2024-01-15T14:07:12;2.08;;;1.88;;
78298;SDS011;67556;55.656;12.590;2024-01-15T14:09:38;2.08;;;1.60;;
78298;SDS011;67556;55.656;12.590;2024-01-15T14:12:07;3.80;;;2.42;;
78298;SDS011;67556;55.656;12.590;2024-01-15T14:14:44;4.35;;;2.35;;
78298;SDS011;67556;55.656;12.590;2024-01-15T14:17:18;3.53;;;1.65;;
78298;SDS011;67556;55.656;12.590;2024-01-15T14:19:46;1.73;;;1.20;;
78298;SDS011;67556;55.656;12.590;2024-01-15T14:22:28;1.63;;;1.45;;
78298;SDS011;67556;55.656;12.590;2024-01-15T14:24:57;1.48;;;1.35;;
78298;SDS011;67556;55.656;12.590;2024-01-15T14:27:42;3.63;;;1.90;;
78298;SDS011;67556;55.656;12.590;2024-01-15T14:30:28;1.52;;;1.42;;
78298;SDS011;67556;55.656;12.590;2024-01-15T14:32:55;1.75;;;1.65;;
78298;SDS011;67556;55.656;12.590;2024-01-15T14:35:33;1.63;;;1.52;;
78298;SDS011;67556;55.656;12.590;2024-01-15T14:38:00;1.17;;;1.08;;
78298;SDS011;67556;55.656;12.590;2024-01-15T14:40:26;1.38;;;1.23;;
78298;SDS011;67556;55.656;12.590;2024-01-15T14:42:53;1.70;;;1.60;;
78298;SDS011;67556;55.656;12.590;2024-01-15T14:45:22;1.55;;;1.40;;
78298;SDS011;67556;55.656;12.590;2024-01-15T14:48:02;1.60;;;1.42;;
78298;SDS011;67556;55.656;12.590;2024-01-15T14:50:31;2.10;;;1.50;;